createdAt,value
2019-03-28T00:04:13.471Z,11.80
2019-03-28T00:09:14.812Z,9.47
2019-03-28T00:14:16.231Z,11.90
2019-03-28T00:19:17.889Z,9.57
2019-03-28T00:24:22.284Z,11.83
2019-03-28T00:29:23.649Z,12.07
2019-03-28T00:34:25.115Z,9.23
2019-03-28T00:39:26.440Z,10.23
2019-03-28T00:44:27.890Z,9.93
2019-03-28T00:49:29.238Z,10.27
2019-03-28T00:54:30.629Z,10.40
2019-03-28T00:59:31.959Z,11.10
2019-03-28T01:04:33.374Z,14.90
2019-03-28T01:09:34.856Z,14.63
2019-03-28T01:14:36.267Z,12.20
2019-03-28T01:19:37.618Z,13.40
2019-03-28T01:24:38.992Z,12.83
2019-03-28T01:29:40.346Z,14.83
2019-03-28T01:34:41.749Z,12.30
2019-03-28T01:39:43.083Z,15.23
2019-03-28T01:44:44.540Z,14.90
2019-03-28T01:49:45.915Z,14.37
2019-03-28T01:54:47.303Z,13.73
2019-03-28T01:59:48.617Z,13.77
2019-03-28T02:04:50.026Z,17.30
2019-03-28T02:09:51.406Z,16.13
2019-03-28T02:14:52.842Z,15.73
2019-03-28T02:19:54.232Z,17.70
2019-03-28T02:24:55.563Z,12.57
2019-03-28T02:29:56.934Z,15.03
2019-03-28T02:34:58.297Z,18.47
2019-03-28T02:39:59.637Z,16.83
2019-03-28T02:45:00.974Z,18.97
2019-03-28T02:50:04.339Z,17.93
2019-03-28T02:55:06.132Z,21.60
2019-03-28T03:00:08.466Z,18.50
2019-03-28T03:05:10.076Z,19.40
2019-03-28T03:10:12.029Z,16.03
2019-03-28T03:15:14.207Z,20.10
2019-03-28T03:20:15.804Z,18.63
2019-03-28T03:25:17.201Z,25.80
2019-03-28T03:30:18.694Z,24.23
2019-03-28T03:35:20.120Z,21.70
2019-03-28T03:40:21.450Z,25.10
2019-03-28T03:45:22.847Z,22.17
2019-03-28T03:50:27.694Z,22.37
2019-03-28T03:55:29.346Z,26.20
2019-03-28T04:00:35.404Z,23.53
2019-03-28T04:05:36.804Z,26.70
2019-03-28T04:10:38.251Z,28.53
2019-03-28T04:15:39.603Z,26.00
2019-03-28T04:20:40.955Z,26.87
2019-03-28T04:25:42.356Z,29.60
2019-03-28T04:30:43.699Z,26.00
2019-03-28T04:35:45.065Z,29.53
2019-03-28T04:40:46.418Z,25.23
2019-03-28T04:45:47.787Z,29.33
2019-03-28T04:50:49.171Z,23.67
2019-03-28T04:55:50.543Z,24.93
2019-03-28T05:00:52.063Z,27.67
2019-03-28T05:05:53.504Z,27.70
2019-03-28T05:10:54.935Z,25.90
2019-03-28T05:15:56.295Z,24.73
2019-03-28T05:20:57.661Z,25.73
2019-03-28T05:25:59.088Z,25.87
2019-03-28T05:31:00.393Z,25.37
2019-03-28T05:36:04.321Z,29.20
2019-03-28T05:41:05.066Z,27.43
2019-03-28T05:46:06.425Z,28.17
2019-03-28T05:51:07.772Z,27.40
2019-03-28T05:56:09.137Z,25.70
2019-03-28T06:01:10.471Z,27.53
2019-03-28T06:06:11.913Z,27.00
2019-03-28T06:11:13.382Z,25.40
2019-03-28T06:16:14.804Z,29.33
2019-03-28T06:21:16.216Z,32.50
2019-03-28T06:26:17.633Z,27.73
2019-03-28T06:31:19.014Z,28.40
2019-03-28T06:36:20.350Z,27.97
2019-03-28T06:41:21.759Z,27.70
2019-03-28T06:46:23.205Z,30.20
2019-03-28T06:51:24.575Z,27.43
2019-03-28T06:56:26.022Z,26.50
2019-03-28T07:01:27.378Z,28.77
2019-03-28T07:06:28.742Z,28.57
2019-03-28T07:11:30.136Z,30.10
2019-03-28T07:16:31.503Z,27.20
2019-03-28T07:21:32.867Z,29.00
2019-03-28T07:26:34.302Z,28.07
2019-03-28T07:31:35.775Z,30.17
2019-03-28T07:36:37.244Z,29.03
2019-03-28T07:41:38.601Z,29.87
2019-03-28T07:46:40.212Z,28.50
2019-03-28T07:51:41.535Z,28.23
2019-03-28T07:56:43.130Z,30.37
2019-03-28T08:01:44.456Z,26.37
2019-03-28T08:06:50.219Z,25.27
2019-03-28T08:11:49.137Z,27.10
2019-03-28T08:16:50.522Z,26.37
2019-03-28T08:21:51.887Z,29.90
2019-03-28T08:26:53.205Z,27.43
2019-03-28T08:31:55.342Z,30.03
2019-03-28T08:36:56.885Z,25.87
2019-03-28T08:41:58.324Z,34.37
2019-03-28T08:46:59.684Z,30.90
2019-03-28T08:52:01.003Z,27.83
2019-03-28T08:57:02.392Z,31.67
2019-03-28T09:02:05.125Z,30.73
2019-03-28T09:07:06.667Z,34.10
2019-03-28T09:12:08.017Z,31.97
2019-03-28T09:17:09.369Z,31.90
2019-03-28T09:22:10.707Z,28.60
2019-03-28T09:27:12.045Z,32.03
2019-03-28T09:32:13.499Z,31.10
2019-03-28T09:37:14.827Z,30.80
2019-03-28T09:42:16.197Z,28.33
2019-03-28T09:47:17.548Z,25.43
2019-03-28T09:52:18.915Z,28.43
2019-03-28T09:57:20.242Z,28.30
2019-03-28T10:02:21.607Z,27.70
2019-03-28T10:07:22.972Z,27.17
2019-03-28T10:12:24.312Z,18.33
2019-03-28T10:17:25.672Z,18.67
2019-03-28T10:22:26.995Z,19.93
2019-03-28T10:27:28.352Z,22.80
2019-03-28T10:32:30.227Z,20.90
2019-03-28T10:37:31.546Z,22.13
2019-03-28T10:42:32.920Z,18.93
2019-03-28T10:47:34.231Z,24.80
2019-03-28T10:52:35.567Z,23.43
2019-03-28T10:57:36.924Z,21.43
2019-03-28T11:02:38.788Z,20.90
2019-03-28T11:07:40.514Z,15.73
2019-03-28T11:12:41.839Z,15.30
2019-03-28T11:17:43.171Z,16.47
2019-03-28T11:22:44.508Z,18.93
2019-03-28T11:27:45.859Z,19.53
2019-03-28T11:32:47.195Z,17.40
2019-03-28T11:37:48.543Z,18.67
2019-03-28T11:42:52.044Z,16.77
2019-03-28T11:47:53.110Z,14.97
2019-03-28T11:52:54.543Z,17.73
2019-03-28T11:57:56.577Z,16.77
2019-03-28T12:02:58.124Z,20.53
2019-03-28T12:07:59.464Z,18.50
2019-03-28T12:13:00.784Z,20.73
2019-03-28T12:18:02.219Z,22.63
2019-03-28T12:23:03.577Z,19.33
2019-03-28T12:28:04.963Z,20.47
2019-03-28T12:33:06.311Z,20.10
2019-03-28T12:38:07.627Z,16.97
2019-03-28T12:43:08.980Z,16.57
2019-03-28T12:48:10.309Z,16.70
2019-03-28T12:53:11.652Z,19.67
2019-03-28T12:58:13.037Z,15.67
2019-03-28T13:03:14.388Z,13.57
2019-03-28T13:08:15.715Z,15.37
2019-03-28T13:13:17.062Z,14.90
2019-03-28T13:18:18.384Z,13.60
2019-03-28T13:23:19.827Z,17.33
2019-03-28T13:28:21.290Z,16.70
2019-03-28T13:33:22.632Z,17.00
2019-03-28T13:38:23.991Z,18.53
2019-03-28T13:43:25.318Z,16.03
2019-03-28T13:48:26.667Z,16.20
2019-03-28T13:53:38.865Z,16.13
2019-03-28T13:58:32.260Z,13.97
2019-03-28T14:03:33.581Z,14.37
2019-03-28T14:08:34.934Z,12.13
2019-03-28T14:13:36.260Z,14.53
2019-03-28T14:18:37.603Z,13.17
2019-03-28T14:23:38.977Z,11.87
2019-03-28T14:28:40.366Z,9.33
2019-03-28T14:33:41.704Z,15.90
2019-03-28T14:38:43.202Z,12.17
2019-03-28T14:43:44.539Z,9.77
2019-03-28T14:48:45.987Z,11.50
2019-03-28T14:53:47.310Z,11.27
2019-03-28T14:58:49.840Z,11.30
2019-03-28T15:03:51.335Z,9.63
2019-03-28T15:08:52.672Z,9.57
2019-03-28T15:13:54.033Z,10.60
2019-03-28T15:18:55.941Z,8.13
2019-03-28T15:23:57.431Z,8.73
2019-03-28T15:28:58.757Z,10.07
2019-03-28T15:34:00.104Z,10.13
2019-03-28T15:39:01.427Z,9.57
2019-03-28T15:44:02.900Z,11.23
2019-03-28T15:49:04.236Z,13.37
2019-03-28T15:54:05.581Z,16.20
2019-03-28T15:59:06.927Z,12.67
2019-03-28T16:04:08.307Z,10.27
2019-03-28T16:09:09.628Z,14.23
2019-03-28T16:14:10.986Z,9.03
2019-03-28T16:19:12.305Z,10.83
2019-03-28T16:24:13.645Z,10.97
2019-03-28T16:29:15.013Z,11.10
2019-03-28T16:34:16.330Z,13.07
2019-03-28T16:39:17.683Z,11.97
2019-03-28T16:44:19.009Z,8.47
2019-03-28T16:49:20.382Z,8.07
2019-03-28T16:54:21.707Z,8.57
2019-03-28T16:59:23.135Z,9.03
2019-03-28T17:04:24.458Z,10.47
2019-03-28T17:09:26.206Z,7.67
2019-03-28T17:14:27.557Z,7.03
2019-03-28T17:19:28.881Z,7.43
2019-03-28T17:24:30.232Z,9.03
2019-03-28T17:29:31.559Z,10.57
2019-03-28T17:34:35.365Z,9.90
2019-03-28T17:39:36.205Z,13.23
2019-03-28T17:44:37.524Z,9.13
2019-03-28T17:49:38.889Z,8.77
2019-03-28T17:54:40.243Z,7.23
2019-03-28T17:59:41.566Z,6.80
2019-03-28T18:04:48.253Z,8.33
2019-03-28T18:09:46.188Z,8.77
2019-03-28T18:14:47.506Z,8.37
2019-03-28T18:19:49.851Z,9.23
2019-03-28T18:24:51.201Z,8.47
2019-03-28T18:29:53.675Z,8.80
2019-03-28T18:35:05.348Z,9.57
2019-03-28T18:39:58.411Z,9.13
2019-03-28T18:44:59.742Z,9.07
2019-03-28T18:50:03.266Z,9.03
2019-03-28T18:55:06.273Z,7.70
2019-03-28T19:00:07.886Z,9.33
2019-03-28T19:05:19.838Z,7.80
2019-03-28T19:10:13.279Z,7.10
2019-03-28T19:15:14.701Z,8.03
2019-03-28T19:20:16.457Z,8.50
2019-03-28T19:25:17.978Z,10.70
2019-03-28T19:30:31.603Z,12.37
2019-03-28T19:35:35.145Z,11.10
2019-03-28T19:40:36.728Z,10.23
2019-03-28T19:45:38.107Z,13.03
2019-03-28T19:50:39.418Z,10.67
2019-03-28T19:55:40.792Z,11.83
2019-03-28T20:00:42.335Z,13.33
2019-03-28T20:05:47.764Z,9.43
2019-03-28T20:10:47.242Z,11.30
2019-03-28T20:15:48.718Z,12.33
2019-03-28T20:20:50.137Z,13.30
2019-03-28T20:25:51.538Z,13.53
2019-03-28T20:30:53.804Z,9.37
2019-03-28T20:36:06.315Z,11.17
2019-03-28T20:40:58.812Z,11.87
2019-03-28T20:46:00.154Z,12.03
2019-03-28T20:51:03.417Z,11.87
2019-03-28T20:56:04.751Z,13.50
2019-03-28T21:01:06.202Z,12.33
2019-03-28T21:06:15.194Z,12.67
2019-03-28T21:11:10.905Z,13.67
2019-03-28T21:16:12.251Z,13.03
2019-03-28T21:21:13.588Z,14.10
2019-03-28T21:26:15.109Z,14.93
2019-03-28T21:31:16.676Z,13.00
2019-03-28T21:36:28.886Z,14.37
2019-03-28T21:41:21.296Z,13.33
2019-03-28T21:46:22.623Z,12.23
2019-03-28T21:51:23.984Z,13.13
2019-03-28T21:56:25.312Z,15.90
2019-03-28T22:01:26.671Z,17.10
2019-03-28T22:06:27.996Z,16.83
2019-03-28T22:11:29.369Z,16.53
2019-03-28T22:16:30.696Z,16.83
2019-03-28T22:21:32.033Z,16.73
2019-03-28T22:26:33.387Z,16.57
2019-03-28T22:31:34.720Z,16.70
2019-03-28T22:36:36.131Z,16.73
2019-03-28T22:41:37.486Z,16.07
2019-03-28T22:46:39.760Z,16.33
2019-03-28T22:51:41.169Z,18.20
2019-03-28T22:56:42.603Z,15.73
2019-03-28T23:01:43.930Z,15.07
2019-03-28T23:06:45.282Z,16.97
2019-03-28T23:11:46.621Z,16.37
2019-03-28T23:16:48.141Z,15.27
2019-03-28T23:21:49.583Z,18.13
2019-03-28T23:26:50.975Z,16.53
2019-03-28T23:31:52.359Z,15.90
2019-03-28T23:36:53.799Z,19.70
2019-03-28T23:41:55.235Z,17.10
2019-03-28T23:46:56.638Z,18.47
2019-03-28T23:51:58.073Z,16.53
2019-03-28T23:56:59.453Z,16.07
